| time (UTC) | temp F | wind direction | speed MPH | gust MPH | rain 1hr in | rain 24hr in | rain mn in | humidity % | barometer mb |
| 20260503034016 | 57 | 0 | 0.0 | 1.0 | 0.04 | 0.44 | 0.07 | 95 | 1011.0 |
| 20260503033516 | 57 | 0 | 0.0 | 1.0 | 0.04 | 0.44 | 0.07 | 95 | 1011.0 |
| 20260503033036 | 57 | 0 | 0.0 | 1.0 | 0.04 | 0.44 | 0.07 | 95 | 1011.0 |
| 20260503032518 | 57 | 0 | 0.0 | 1.0 | 0.04 | 0.44 | 0.07 | 95 | 1011.1 |
| 20260503032017 | 57 | 0 | 0.0 | 2.0 | 0.04 | 0.44 | 0.07 | 95 | 1011.2 |
| 20260503031533 | 57 | 0 | 0.0 | 2.0 | 0.04 | 0.44 | 0.07 | 95 | 1011.4 |
| 20260503031018 | 57 | 0 | 0.0 | 2.0 | 0.04 | 0.44 | 0.07 | 95 | 1011.5 |
| 20260503030515 | 57 | 0 | 0.0 | 2.0 | 0.03 | 0.44 | 0.06 | 95 | 1011.4 |
| 20260503030046 | 57 | 0 | 0.0 | 3.0 | 0.03 | 0.43 | 0.05 | 95 | 1011.5 |
| 20260503025515 | 57 | 148 | 0.0 | 3.0 | 0.02 | 0.42 | 0.04 | 95 | 1011.6 |
| 20260503025016 | 58 | 149 | 0.0 | 3.0 | 0.02 | 0.41 | 0.03 | 95 | 1011.9 |
| 20260503024533 | 57 | 149 | 0.0 | 5.0 | 0.00 | 0.40 | 0.02 | 95 | 1012.0 |
| 20260503024019 | 57 | 149 | 1.0 | 5.0 | 0.00 | 0.40 | 0.02 | 95 | 1012.1 |
| 20260503023517 | 57 | 150 | 1.0 | 4.0 | 0.01 | 0.40 | 0.02 | 95 | 1012.1 |
| 20260503023032 | 57 | 150 | 0.0 | 5.0 | 0.01 | 0.40 | 0.02 | 95 | 1012.1 |
| 20260503022516 | 57 | 150 | 1.0 | 5.0 | 0.01 | 0.40 | 0.02 | 95 | 1012.1 |
| 20260503022018 | 57 | 148 | 1.0 | 4.0 | 0.01 | 0.40 | 0.02 | 95 | 1012.1 |
| 20260503021531 | 57 | 148 | 0.0 | 5.0 | 0.01 | 0.40 | 0.02 | 95 | 1012.2 |
| 20260503021017 | 57 | 148 | 1.0 | 5.0 | 0.01 | 0.40 | 0.02 | 95 | 1012.2 |
| 20260503020514 | 57 | 139 | 1.0 | 5.0 | 0.01 | 0.40 | 0.02 | 95 | 1012.2 |
| 20260503020035 | 57 | 0 | 0.0 | 2.0 | 0.01 | 0.40 | 0.02 | 95 | 1012.0 |
| 20260503015516 | 57 | 0 | 0.0 | 3.0 | 0.01 | 0.40 | 0.02 | 94 | 1012.1 |
| 20260503015017 | 57 | 0 | 0.0 | 3.0 | 0.00 | 0.39 | 0.01 | 95 | 1012.2 |
| 20260503014531 | 57 | 108 | 0.0 | 3.0 | 0.00 | 0.39 | 0.01 | 94 | 1012.2 |
| 20260503014016 | 57 | 0 | 0.0 | 3.0 | 0.00 | 0.39 | 0.01 | 94 | 1012.3 |
| 20260503013516 | 57 | 108 | 1.0 | 4.0 | 0.00 | 0.38 | 0.00 | 94 | 1012.2 |
| 20260503013037 | 57 | 0 | 0.0 | 4.0 | 0.00 | 0.38 | 0.00 | 94 | 1012.3 |
| 20260503012517 | 57 | 0 | 0.0 | 4.0 | 0.00 | 0.38 | 0.00 | 94 | 1012.3 |
| 20260503012015 | 57 | 104 | 0.0 | 2.0 | 0.00 | 0.38 | 0.00 | 94 | 1012.2 |
| 20260503011532 | 57 | 0 | 0.0 | 2.0 | 0.00 | 0.38 | 0.00 | 94 | 1012.1 |
| 20260503011016 | 57 | 0 | 0.0 | 2.0 | 0.00 | 0.38 | 0.00 | 94 | 1012.1 |
| 20260503010515 | 57 | 0 | 0.0 | 2.0 | 0.00 | 0.38 | 0.00 | 94 | 1012.1 |
| 20260503010035 | 57 | 0 | 0.0 | 2.0 | 0.00 | 0.38 | 0.00 | 94 | 1012.0 |
| 20260503005516 | 57 | 0 | 0.0 | 2.0 | 0.00 | 0.38 | 0.00 | 94 | 1012.1 |
| 20260503005019 | 57 | 0 | 0.0 | 2.0 | 0.00 | 0.38 | 0.00 | 94 | 1012.2 |
| 20260503004533 | 57 | 0 | 0.0 | 2.0 | 0.00 | 0.38 | 0.00 | 94 | 1012.3 |
| 20260503004017 | 57 | 0 | 0.0 | 2.0 | 0.00 | 0.38 | 0.00 | 94 | 1012.3 |
| 20260503003515 | 57 | 0 | 0.0 | 2.0 | 0.00 | 0.38 | 0.00 | 94 | 1012.3 |
| 20260503003029 | 57 | 0 | 0.0 | 2.0 | 0.00 | 0.38 | 0.00 | 94 | 1012.3 |
| 20260503002515 | 57 | 0 | 0.0 | 2.0 | 0.00 | 0.38 | 0.00 | 94 | 1012.4 |
| 20260503002018 | 57 | 104 | 0.0 | 2.0 | 0.00 | 0.38 | 0.00 | 94 | 1012.4 |
| 20260503001546 | 57 | 104 | 0.0 | 3.0 | 0.00 | 0.38 | 0.00 | 94 | 1012.4 |
| 20260503001017 | 57 | 0 | 0.0 | 3.0 | 0.00 | 0.38 | 0.00 | 94 | 1012.4 |
| 20260503000515 | 57 | 0 | 0.0 | 3.0 | 0.00 | 0.38 | 0.00 | 94 | 1012.4 |
| 20260503000032 | 57 | 0 | 0.0 | 2.0 | 0.00 | 0.38 | 0.00 | 94 | 1012.5 |
| 20260502235516 | 57 | 0 | 0.0 | 2.0 | 0.00 | 0.38 | 0.00 | 94 | 1012.6 |
| 20260502235015 | 57 | 0 | 0.0 | 2.0 | 0.00 | 0.38 | 0.00 | 93 | 1012.4 |
| 20260502234539 | 57 | 103 | 0.0 | 2.0 | 0.00 | 0.38 | 0.00 | 94 | 1012.5 |
| 20260502234019 | 57 | 103 | 0.0 | 3.0 | 0.00 | 0.38 | 0.00 | 93 | 1012.8 |
| 20260502233518 | 57 | 0 | 0.0 | 3.0 | 0.00 | 0.38 | 0.00 | 93 | 1012.9 |
| 20260502233032 | 56 | 0 | 0.0 | 3.0 | 0.00 | 0.38 | 0.00 | 93 | 1012.9 |
| 20260502232519 | 56 | 0 | 0.0 | 3.0 | 0.00 | 0.38 | 0.00 | 93 | 1013.0 |
| 20260502232017 | 56 | 0 | 0.0 | 3.0 | 0.00 | 0.38 | 0.00 | 93 | 1013.0 |
| 20260502231532 | 56 | 0 | 0.0 | 3.0 | 0.00 | 0.38 | 0.00 | 93 | 1012.9 |
| 20260502231016 | 56 | 0 | 0.0 | 3.0 | 0.00 | 0.38 | 0.00 | 93 | 1012.8 |
| 20260502230536 | 56 | 103 | 0.0 | 3.0 | 0.00 | 0.38 | 0.00 | 93 | 1012.9 |
| 20260502230039 | 56 | 0 | 0.0 | 4.0 | 0.00 | 0.38 | 0.00 | 92 | 1013.1 |
| 20260502225515 | 56 | 0 | 0.0 | 4.0 | 0.01 | 0.38 | 0.00 | 92 | 1013.1 |
| 20260502225020 | 56 | 0 | 1.0 | 4.0 | 0.01 | 0.38 | 0.00 | 92 | 1013.1 |
| 20260502224534 | 56 | 0 | 0.0 | 3.0 | 0.02 | 0.38 | 0.00 | 92 | 1013.2 |
| 20260502224015 | 56 | 0 | 0.0 | 4.0 | 0.02 | 0.38 | 0.00 | 92 | 1013.2 |
| 20260502223515 | 57 | 99 | 0.0 | 6.0 | 0.03 | 0.38 | 0.00 | 92 | 1013.0 |
| 20260502223033 | 57 | 100 | 1.0 | 6.0 | 0.04 | 0.38 | 0.00 | 91 | 1013.1 |
| 20260502222517 | 57 | 99 | 0.0 | 4.0 | 0.05 | 0.38 | 0.00 | 91 | 1013.1 |
| 20260502222016 | 57 | 98 | 0.0 | 6.0 | 0.07 | 0.38 | 0.00 | 91 | 1013.2 |
| 20260502221539 | 57 | 0 | 1.0 | 6.0 | 0.08 | 0.38 | 0.00 | 91 | 1013.2 |
| 20260502221015 | 57 | 89 | 1.0 | 6.0 | 0.10 | 0.37 | 0.00 | 91 | 1013.2 |
| 20260502220517 | 57 | 78 | 2.0 | 6.0 | 0.22 | 0.37 | 0.00 | 91 | 1013.3 |
| 20260502220031 | 57 | 97 | 1.0 | 4.0 | 0.33 | 0.37 | 0.00 | 90 | 1013.4 |
| 20260502215516 | 57 | 96 | 1.0 | 4.0 | 0.37 | 0.37 | 0.37 | 90 | 1013.4 |
| 20260502215017 | 57 | 92 | 2.0 | 8.0 | 0.37 | 0.37 | 0.37 | 90 | 1013.5 |
| 20260502214529 | 57 | 92 | 2.0 | 8.0 | 0.36 | 0.36 | 0.36 | 89 | 1013.6 |
| 20260502214015 | 57 | 71 | 2.0 | 8.0 | 0.35 | 0.35 | 0.35 | 88 | 1013.7 |
| 20260502213515 | 57 | 100 | 2.0 | 8.0 | 0.34 | 0.34 | 0.34 | 88 | 1013.6 |
| 20260502213032 | 57 | 99 | 1.0 | 8.0 | 0.33 | 0.33 | 0.33 | 87 | 1013.9 |
| 20260502212518 | 57 | 103 | 1.0 | 6.0 | 0.32 | 0.32 | 0.32 | 86 | 1013.9 |
| 20260502212016 | 58 | 99 | 1.0 | 6.0 | 0.31 | 0.31 | 0.31 | 85 | 1014.2 |
| 20260502211533 | 58 | 101 | 0.0 | 7.0 | 0.29 | 0.29 | 0.29 | 84 | 1014.5 |
| 20260502211018 | 59 | 113 | 2.0 | 8.0 | 0.26 | 0.26 | 0.26 | 81 | 1014.8 |
| 20260502210514 | 60 | 0 | 1.0 | 8.0 | 0.11 | 0.11 | 0.11 | 78 | 1015.0 |
| 20260502210031 | 61 | 184 | 4.0 | 7.0 | 0.03 | 0.03 | 0.03 | 74 | 1015.2 |
| 20260502205517 | 60 | 213 | 2.0 | 7.0 | 0.00 | 0.00 | 0.00 | 72 | 1015.0 |
| 20260502205016 | 59 | 272 | 2.0 | 6.0 | 0.00 | 0.00 | 0.00 | 72 | 1014.9 |
| 20260502204533 | 59 | 0 | 0.0 | 2.0 | 0.00 | 0.00 | 0.00 | 71 | 1014.0 |
| 20260502204018 | 59 | 25 | 0.0 | 2.0 | 0.00 | 0.00 | 0.00 | 70 | 1014.0 |
| 20260502203518 | 59 | 0 | 0.0 | 3.0 | 0.00 | 0.00 | 0.00 | 70 | 1014.0 |
| 20260502203032 | 59 | 25 | 0.0 | 4.0 | 0.00 | 0.00 | 0.00 | 70 | 1014.0 |
| 20260502202515 | 59 | 24 | 1.0 | 4.0 | 0.00 | 0.00 | 0.00 | 70 | 1014.1 |
| 20260502202015 | 58 | 25 | 0.0 | 3.0 | 0.00 | 0.00 | 0.00 | 72 | 1014.1 |
| 20260502201541 | 58 | 25 | 0.0 | 2.0 | 0.00 | 0.00 | 0.00 | 73 | 1014.0 |
| 20260502201015 | 57 | 0 | 0.0 | 2.0 | 0.00 | 0.00 | 0.00 | 74 | 1014.0 |
| 20260502200518 | 57 | 25 | 0.0 | 1.0 | 0.00 | 0.00 | 0.00 | 74 | 1014.2 |
| 20260502200031 | 57 | 0 | 0.0 | 0.0 | 0.00 | 0.00 | 0.00 | 74 | 1014.3 |
| 20260502195515 | 58 | 0 | 0.0 | 1.0 | 0.00 | 0.00 | 0.00 | 74 | 1014.2 |
| 20260502195015 | 58 | 0 | 0.0 | 1.0 | 0.00 | 0.00 | 0.00 | 73 | 1014.4 |
| 20260502194529 | 58 | 0 | 0.0 | 0.0 | 0.00 | 0.00 | 0.00 | 72 | 1014.4 |
| 20260502194016 | 58 | 0 | 0.0 | 1.0 | 0.00 | 0.00 | 0.00 | 71 | 1014.4 |
| 20260502193516 | 59 | 0 | 0.0 | 1.0 | 0.00 | 0.00 | 0.00 | 70 | 1014.5 |
| 20260502193032 | 59 | 0 | 0.0 | 3.0 | 0.00 | 0.00 | 0.00 | 69 | 1014.5 |
| 20260502192516 | 59 | 0 | 0.0 | 3.0 | 0.00 | 0.00 | 0.00 | 70 | 1014.6 |
| 20260502192016 | 59 | 0 | 0.0 | 0.0 | 0.00 | 0.00 | 0.00 | 70 | 1014.7 |
| 20260502191534 | 59 | 0 | 0.0 | 2.0 | 0.00 | 0.00 | 0.00 | 69 | 1014.7 |
| 20260502191016 | 59 | 0 | 0.0 | 2.0 | 0.00 | 0.00 | 0.00 | 69 | 1014.7 |
| 20260502190516 | 59 | 0 | 1.0 | 2.0 | 0.00 | 0.00 | 0.00 | 69 | 1014.6 |
| 20260502190037 | 59 | 25 | 1.0 | 2.0 | 0.00 | 0.00 | 0.00 | 69 | 1014.6 |
| 20260502185515 | 60 | 0 | 0.0 | 3.0 | 0.00 | 0.00 | 0.00 | 69 | 1014.6 |
| 20260502185015 | 60 | 0 | 0.0 | 3.0 | 0.00 | 0.00 | 0.00 | 69 | 1014.5 |
| 20260502184544 | 60 | 25 | 1.0 | 4.0 | 0.00 | 0.00 | 0.00 | 67 | 1014.5 |
| 20260502184014 | 61 | 0 | 1.0 | 4.0 | 0.00 | 0.00 | 0.00 | 67 | 1014.6 |
| 20260502183516 | 61 | 24 | 1.0 | 4.0 | 0.00 | 0.00 | 0.00 | 66 | 1014.5 |
| 20260502183043 | 61 | 24 | 1.0 | 4.0 | 0.00 | 0.00 | 0.00 | 65 | 1014.6 |
| 20260502182516 | 61 | 25 | 1.0 | 4.0 | 0.00 | 0.00 | 0.00 | 65 | 1014.7 |
| 20260502182015 | 62 | 25 | 1.0 | 3.0 | 0.00 | 0.00 | 0.00 | 65 | 1014.7 |
| 20260502181540 | 62 | 25 | 1.0 | 3.0 | 0.00 | 0.00 | 0.00 | 65 | 1014.7 |
| 20260502181015 | 63 | 26 | 1.0 | 4.0 | 0.00 | 0.00 | 0.00 | 64 | 1014.7 |
| 20260502180515 | 63 | 26 | 1.0 | 4.0 | 0.00 | 0.00 | 0.00 | 63 | 1014.7 |
| 20260502170517 | 65 | 0 | 0.0 | 2.0 | 0.00 | 0.00 | 0.00 | 61 | 1015.3 |
| 20260502164015 | 67 | 34 | 0.0 | 4.0 | 0.00 | 0.00 | 0.00 | 60 | 1015.7 |
| 20260502163515 | 68 | 34 | 1.0 | 3.0 | 0.00 | 0.00 | 0.00 | 59 | 1015.7 |
| 20260502163032 | 68 | 34 | 0.0 | 6.0 | 0.00 | 0.00 | 0.00 | 59 | 1015.7 |
| 20260502162515 | 68 | 34 | 1.0 | 6.0 | 0.00 | 0.00 | 0.00 | 58 | 1015.9 |
| 20260502162015 | 69 | 0 | 0.0 | 4.0 | 0.00 | 0.00 | 0.00 | 58 | 1016.0 |
| 20260502161531 | 69 | 223 | 0.0 | 2.0 | 0.00 | 0.00 | 0.00 | 58 | 1016.0 |
| 20260502161015 | 70 | 223 | 0.0 | 2.0 | 0.00 | 0.00 | 0.00 | 57 | 1016.0 |
| 20260502160520 | 70 | 223 | 0.0 | 3.0 | 0.00 | 0.00 | 0.00 | 56 | 1016.0 |
| 20260502152016 | 73 | 0 | 0.0 | 3.0 | 0.00 | 0.00 | 0.00 | 51 | 1016.2 |
| 20260502151537 | 73 | 223 | 0.0 | 3.0 | 0.00 | 0.00 | 0.00 | 53 | 1016.3 |
| 20260502151015 | 73 | 221 | 0.0 | 4.0 | 0.00 | 0.00 | 0.00 | 52 | 1016.3 |
| 20260502150515 | 73 | 221 | 0.0 | 4.0 | 0.00 | 0.00 | 0.00 | 52 | 1016.3 |
| 20260502130516 | 73 | 208 | 1.0 | 7.0 | 0.00 | 0.00 | 0.00 | 60 | 1017.5 |
| 20260502123517 | 71 | 153 | 1.0 | 6.0 | 0.00 | 0.00 | 0.00 | 67 | 1017.7 |
| 20260502123036 | 71 | 181 | 1.0 | 6.0 | 0.00 | 0.00 | 0.00 | 67 | 1017.7 |
| 20260502122514 | 72 | 0 | 1.0 | 4.0 | 0.00 | 0.00 | 0.00 | 66 | 1017.7 |
| 20260502122015 | 71 | 184 | 1.0 | 5.0 | 0.00 | 0.00 | 0.00 | 69 | 1017.8 |
| 20260502121542 | 71 | 188 | 1.0 | 5.0 | 0.00 | 0.00 | 0.00 | 68 | 1017.9 |
| 20260502121016 | 71 | 186 | 2.0 | 5.0 | 0.00 | 0.00 | 0.00 | 66 | 1017.9 |
| 20260502120514 | 72 | 292 | 1.0 | 4.0 | 0.00 | 0.00 | 0.00 | 68 | 1017.9 |
| 20260502115515 | 71 | 0 | 1.0 | 5.0 | 0.00 | 0.00 | 0.00 | 70 | 1018.0 |
| 20260502115015 | 71 | 311 | 1.0 | 6.0 | 0.00 | 0.00 | 0.00 | 68 | 1018.0 |
| 20260502114528 | 71 | 150 | 2.0 | 10.0 | 0.00 | 0.00 | 0.00 | 69 | 1018.1 |
| 20260502114016 | 70 | 147 | 2.0 | 10.0 | 0.00 | 0.00 | 0.00 | 69 | 1018.2 |
| 20260502113516 | 70 | 213 | 2.0 | 8.0 | 0.00 | 0.00 | 0.00 | 72 | 1018.3 |
| 20260502113033 | 69 | 161 | 3.0 | 8.0 | 0.00 | 0.00 | 0.00 | 73 | 1018.3 |
| 20260502112515 | 69 | 161 | 3.0 | 9.0 | 0.00 | 0.00 | 0.00 | 72 | 1018.5 |
| 20260502112015 | 68 | 170 | 2.0 | 9.0 | 0.00 | 0.00 | 0.00 | 74 | 1018.5 |
| 20260502111532 | 68 | 158 | 3.0 | 9.0 | 0.00 | 0.00 | 0.00 | 74 | 1018.6 |
| 20260502111016 | 68 | 147 | 1.0 | 7.0 | 0.00 | 0.00 | 0.00 | 75 | 1018.5 |
| 20260502110514 | 68 | 240 | 2.0 | 7.0 | 0.00 | 0.00 | 0.00 | 73 | 1018.5 |
| 20260502110033 | 68 | 219 | 1.0 | 6.0 | 0.00 | 0.00 | 0.00 | 73 | 1018.5 |
| 20260502105516 | 68 | 246 | 1.0 | 6.0 | 0.00 | 0.00 | 0.00 | 74 | 1018.6 |
| 20260502105015 | 70 | 269 | 1.0 | 6.0 | 0.00 | 0.00 | 0.00 | 73 | 1018.7 |
| 20260502104531 | 70 | 284 | 2.0 | 8.0 | 0.00 | 0.00 | 0.00 | 72 | 1018.6 |
| 20260502104016 | 69 | 274 | 2.0 | 9.0 | 0.00 | 0.00 | 0.00 | 74 | 1018.6 |
| 20260502103514 | 69 | 105 | 1.0 | 9.0 | 0.00 | 0.00 | 0.00 | 74 | 1018.7 |
| 20260502103032 | 69 | 139 | 1.0 | 7.0 | 0.00 | 0.00 | 0.00 | 73 | 1018.6 |
| 20260502102514 | 68 | 311 | 2.0 | 6.0 | 0.00 | 0.00 | 0.00 | 76 | 1018.7 |
| 20260502102014 | 69 | 290 | 1.0 | 6.0 | 0.00 | 0.00 | 0.00 | 73 | 1018.7 |
| 20260502101542 | 69 | 221 | 1.0 | 5.0 | 0.00 | 0.00 | 0.00 | 75 | 1018.7 |
| 20260502101013 | 69 | 253 | 1.0 | 4.0 | 0.00 | 0.00 | 0.00 | 76 | 1018.7 |
| 20260502100520 | 69 | 248 | 1.0 | 7.0 | 0.00 | 0.00 | 0.00 | 75 | 1018.7 |
| 20260502091528 | 65 | 275 | 1.0 | 4.0 | 0.00 | 0.00 | 0.00 | 81 | 1018.8 |
| 20260502091015 | 65 | 284 | 1.0 | 7.0 | 0.00 | 0.00 | 0.00 | 82 | 1019.1 |
| 20260502090516 | 65 | 207 | 1.0 | 7.0 | 0.00 | 0.00 | 0.00 | 81 | 1019.0 |
| 20260502071532 | 57 | 0 | 0.0 | 0.0 | 0.00 | 0.00 | 0.00 | 89 | 1018.6 |
| 20260502071014 | 57 | 0 | 0.0 | 0.0 | 0.00 | 0.00 | 0.00 | 88 | 1018.5 |
| 20260502070517 | 57 | 0 | 0.0 | 0.0 | 0.00 | 0.00 | 0.00 | 88 | 1018.4 |
| 20260502070033 | 57 | 0 | 0.0 | 0.0 | 0.00 | 0.00 | 0.00 | 87 | 1018.5 |
| 20260502065515 | 57 | 0 | 0.0 | 0.0 | 0.00 | 0.00 | 0.00 | 87 | 1018.5 |
| 20260502065015 | 57 | 0 | 0.0 | 0.0 | 0.00 | 0.00 | 0.00 | 86 | 1018.6 |
| 20260502064532 | 57 | 0 | 0.0 | 0.0 | 0.00 | 0.00 | 0.00 | 86 | 1018.8 |
| 20260502064015 | 57 | 0 | 0.0 | 0.0 | 0.00 | 0.00 | 0.00 | 85 | 1018.7 |
| 20260502063515 | 57 | 0 | 0.0 | 0.0 | 0.00 | 0.00 | 0.00 | 85 | 1018.8 |
| 20260502063030 | 57 | 0 | 0.0 | 0.0 | 0.00 | 0.00 | 0.00 | 85 | 1018.7 |
| 20260502062515 | 57 | 0 | 0.0 | 0.0 | 0.00 | 0.00 | 0.00 | 83 | 1018.8 |
| 20260502062018 | 58 | 0 | 0.0 | 0.0 | 0.00 | 0.00 | 0.00 | 82 | 1018.8 |
| 20260502061529 | 58 | 0 | 0.0 | 0.0 | 0.00 | 0.00 | 0.00 | 81 | 1018.9 |
| 20260502061014 | 58 | 0 | 0.0 | 0.0 | 0.00 | 0.00 | 0.00 | 80 | 1018.9 |
| 20260502060517 | 58 | 0 | 0.0 | 0.0 | 0.00 | 0.00 | 0.00 | 80 | 1018.8 |
| 20260502060031 | 58 | 0 | 0.0 | 0.0 | 0.00 | 0.00 | 0.00 | 82 | 1018.8 |
| 20260502055515 | 57 | 0 | 0.0 | 0.0 | 0.00 | 0.00 | 0.00 | 82 | 1018.7 |
| 20260502055017 | 57 | 0 | 0.0 | 0.0 | 0.00 | 0.00 | 0.00 | 82 | 1018.8 |
| 20260502054532 | 57 | 0 | 0.0 | 0.0 | 0.00 | 0.00 | 0.00 | 82 | 1018.8 |
| 20260502054015 | 56 | 0 | 0.0 | 0.0 | 0.00 | 0.00 | 0.00 | 81 | 1018.6 |
| 20260502053516 | 56 | 0 | 0.0 | 0.0 | 0.00 | 0.00 | 0.00 | 80 | 1018.7 |
| 20260502053035 | 56 | 0 | 0.0 | 0.0 | 0.00 | 0.00 | 0.00 | 79 | 1018.6 |
| 20260502052516 | 56 | 0 | 0.0 | 0.0 | 0.00 | 0.00 | 0.00 | 79 | 1018.6 |
| 20260502052016 | 55 | 0 | 0.0 | 0.0 | 0.00 | 0.00 | 0.00 | 79 | 1018.6 |
| 20260502051530 | 54 | 0 | 0.0 | 0.0 | 0.00 | 0.00 | 0.00 | 80 | 1018.6 |
| 20260502051013 | 54 | 0 | 0.0 | 0.0 | 0.00 | 0.00 | 0.00 | 80 | 1018.6 |
| 20260502050516 | 54 | 0 | 0.0 | 0.0 | 0.00 | 0.00 | 0.00 | 80 | 1018.6 |
| 20260502050037 | 53 | 0 | 0.0 | 0.0 | 0.00 | 0.00 | 0.00 | 82 | 1018.5 |
| 20260502045516 | 52 | 0 | 0.0 | 0.0 | 0.00 | 0.00 | 0.00 | 83 | 1018.5 |
| 20260502045017 | 52 | 0 | 0.0 | 0.0 | 0.00 | 0.00 | 0.00 | 83 | 1018.7 |
| 20260502044537 | 51 | 0 | 0.0 | 0.0 | 0.00 | 0.00 | 0.00 | 84 | 1018.6 |
| 20260502044012 | 50 | 0 | 0.0 | 0.0 | 0.00 | 0.00 | 0.00 | 86 | 1018.7 |
| 20260502043517 | 50 | 0 | 0.0 | 0.0 | 0.00 | 0.00 | 0.00 | 86 | 1018.7 |
| 20260502043032 | 49 | 0 | 0.0 | 0.0 | 0.00 | 0.00 | 0.00 | 86 | 1018.6 |
| 20260502042516 | 49 | 0 | 0.0 | 0.0 | 0.00 | 0.00 | 0.00 | 86 | 1018.5 |
| 20260502042021 | 48 | 0 | 0.0 | 0.0 | 0.00 | 0.00 | 0.00 | 85 | 1018.6 |
| 20260502041601 | 48 | 0 | 0.0 | 0.0 | 0.00 | 0.00 | 0.00 | 85 | 1018.5 |
| 20260502041017 | 48 | 0 | 0.0 | 0.0 | 0.00 | 0.00 | 0.00 | 85 | 1018.4 |
| 20260502040516 | 48 | 0 | 0.0 | 0.0 | 0.00 | 0.00 | 0.00 | 85 | 1018.5 |
| 20260502040041 | 48 | 0 | 0.0 | 0.0 | 0.00 | 0.00 | 0.00 | 85 | 1018.6 |
| 20260502035516 | 48 | 0 | 0.0 | 0.0 | 0.00 | 0.00 | 0.00 | 84 | 1018.6 |
| 20260502035018 | 48 | 0 | 0.0 | 0.0 | 0.00 | 0.00 | 0.00 | 84 | 1018.6 |
| 20260502034532 | 49 | 0 | 0.0 | 0.0 | 0.00 | 0.00 | 0.00 | 84 | 1018.6 |